Time;durP1;ratioP1;P1;durP2;ratioP2;P2;SDS_P1;SDS_P2;PMS_P1;PMS_P2;Temp;Humidity;BMP_temperature;BMP_pressure;BME280_temperature;BME280_humidity;BME280_pressure;Samples;Min_cycle;Max_cycle;Signal;HPM_P1;HPM_P2
2021/03/04 00:00:32;;;;;;;0.40;0.40;;;9.00;99.90;;;;;;5011322;28;20201;-83
2021/03/04 00:02:58;;;;;;;0.70;0.67;;;8.90;99.90;;;;;;5011888;28;20194;-84
2021/03/04 00:05:24;;;;;;;0.70;0.70;;;8.90;99.90;;;;;;5010453;28;20226;-83
2021/03/04 00:07:49;;;;;;;0.30;0.30;;;9.00;99.90;;;;;;5009035;28;20562;-82
2021/03/04 00:10:17;;;;;;;0.77;0.77;;;9.00;99.90;;;;;;5011580;28;20679;-82
2021/03/04 00:12:44;;;;;;;1.13;0.60;;;9.10;99.90;;;;;;5008755;28;20186;-83
2021/03/04 00:15:12;;;;;;;0.30;0.30;;;9.10;99.90;;;;;;5009079;28;20199;-84
2021/03/04 00:17:38;;;;;;;0.60;0.60;;;9.10;99.90;;;;;;5022765;28;20721;-81
2021/03/04 00:20:14;;;;;;;3.10;1.70;;;9.00;99.90;;;;;;5010454;28;20211;-82
2021/03/04 00:22:40;;;;;;;0.60;0.60;;;9.00;99.90;;;;;;5010628;28;20655;-81
2021/03/04 00:25:07;;;;;;;3.50;1.53;;;9.00;99.90;;;;;;5008945;28;20224;-83
2021/03/04 00:27:33;;;;;;;0.70;0.60;;;9.00;99.90;;;;;;5011421;28;20651;-84
2021/03/04 00:30:01;;;;;;;0.30;0.30;;;9.00;99.90;;;;;;5010031;28;20291;-83
2021/03/04 00:32:27;;;;;;;0.87;0.87;;;9.00;99.90;;;;;;5026999;28;20198;-84
2021/03/04 00:34:52;;;;;;;0.30;0.30;;;9.00;99.90;;;;;;5011240;28;20183;-83
2021/03/04 00:37:18;;;;;;;0.27;0.27;;;9.00;99.90;;;;;;5011478;28;20198;-83
2021/03/04 00:39:44;;;;;;;0.37;0.37;;;9.00;99.90;;;;;;5010701;28;20501;-83
2021/03/04 00:42:09;;;;;;;0.33;0.30;;;9.00;99.90;;;;;;5012305;28;20716;-81
2021/03/04 00:44:36;;;;;;;0.90;0.80;;;9.00;99.90;;;;;;5010322;28;20221;-81
2021/03/04 00:47:02;;;;;;;0.73;0.73;;;9.00;99.90;;;;;;5012360;28;20192;-81
2021/03/04 00:49:28;;;;;;;0.47;0.20;;;9.00;99.90;;;;;;5011076;28;20207;-81
2021/03/04 00:51:53;;;;;;;0.87;0.83;;;9.00;99.90;;;;;;5011414;28;20189;-81
2021/03/04 00:54:19;;;;;;;0.40;0.40;;;8.90;99.90;;;;;;5010288;28;20184;-82
2021/03/04 00:56:44;;;;;;;1.73;0.80;;;8.90;99.90;;;;;;5009645;28;20208;-82
2021/03/04 00:59:10;;;;;;;0.30;0.30;;;8.90;99.90;;;;;;5014733;28;20284;-82
2021/03/04 01:01:36;;;;;;;1.33;0.67;;;8.80;99.90;;;;;;5012519;28;20194;-82
2021/03/04 01:04:01;;;;;;;0.50;0.50;;;8.80;99.90;;;;;;5009668;28;20225;-82
2021/03/04 01:06:27;;;;;;;1.30;1.10;;;8.70;99.90;;;;;;5009633;28;20592;-82
2021/03/04 01:08:52;;;;;;;1.87;0.70;;;8.60;99.90;;;;;;5015021;28;20228;-81
2021/03/04 01:11:18;;;;;;;0.67;0.67;;;8.50;99.90;;;;;;5014650;28;20189;-82
2021/03/04 01:13:44;;;;;;;0.80;0.60;;;8.30;99.90;;;;;;5013720;28;20669;-82
2021/03/04 01:16:09;;;;;;;1.27;1.17;;;8.20;99.90;;;;;;5013964;28;20777;-81
2021/03/04 01:18:36;;;;;;;0.77;0.57;;;8.00;99.90;;;;;;5020985;28;20251;-82
2021/03/04 01:21:03;;;;;;;0.33;0.33;;;7.80;99.90;;;;;;5024315;28;20209;-84
2021/03/04 01:23:28;;;;;;;3.30;0.87;;;7.80;99.90;;;;;;5008784;28;20213;-83
2021/03/04 01:25:54;;;;;;;1.00;1.00;;;7.80;99.90;;;;;;5015993;28;20687;-83
2021/03/04 01:28:20;;;;;;;0.27;0.27;;;7.70;99.90;;;;;;5017561;28;20209;-83
2021/03/04 01:30:45;;;;;;;2.00;0.73;;;7.60;99.90;;;;;;5016823;28;20239;-83
2021/03/04 01:33:11;;;;;;;0.50;0.50;;;7.70;99.90;;;;;;5016793;28;20185;-83
2021/03/04 01:35:37;;;;;;;1.53;0.93;;;7.50;99.90;;;;;;5016112;28;20181;-83
2021/03/04 01:38:02;;;;;;;0.70;0.60;;;7.60;99.90;;;;;;5018735;28;20712;-83
2021/03/04 01:40:28;;;;;;;0.67;0.63;;;7.60;99.90;;;;;;5016235;28;20179;-82
2021/03/04 01:42:54;;;;;;;2.60;1.00;;;7.70;99.90;;;;;;5010373;28;20254;-83
2021/03/04 01:45:20;;;;;;;1.50;0.53;;;7.80;99.90;;;;;;5014993;28;20295;-84
2021/03/04 01:47:49;;;;;;;0.40;0.20;;;7.80;99.90;;;;;;5018814;28;20212;-85
2021/03/04 01:50:16;;;;;;;1.13;1.03;;;7.90;99.90;;;;;;5015518;28;20197;-83
2021/03/04 01:52:43;;;;;;;0.30;0.30;;;8.10;99.90;;;;;;5016704;28;20189;-83
2021/03/04 01:55:09;;;;;;;0.63;0.47;;;8.10;99.90;;;;;;5016757;28;20181;-83
2021/03/04 01:57:37;;;;;;;0.60;0.53;;;8.20;99.90;;;;;;5016131;28;20777;-83
2021/03/04 02:00:07;;;;;;;1.33;0.63;;;8.10;99.90;;;;;;5021537;28;20203;-83
2021/03/04 02:02:33;;;;;;;0.80;0.63;;;8.10;99.90;;;;;;5012016;28;20200;-83
2021/03/04 02:04:59;;;;;;;0.60;0.60;;;8.10;99.90;;;;;;5015650;28;20206;-83
2021/03/04 02:07:51;;;;;;;1.03;0.50;;;8.20;99.90;;;;;;5016352;28;20188;-83
2021/03/04 02:10:30;;;;;;;1.70;0.50;;;8.30;99.90;;;;;;5004945;28;20204;-83
2021/03/04 02:13:14;;;;;;;0.43;0.43;;;8.40;99.90;;;;;;5014743;28;20268;-83
2021/03/04 02:15:55;;;;;;;0.27;0.27;;;8.40;99.90;;;;;;5016531;28;20194;-83
2021/03/04 02:18:25;;;;;;;0.60;0.43;;;8.50;99.90;;;;;;5015392;28;20217;-83
2021/03/04 02:21:25;;;;;;;0.70;0.67;;;8.30;99.90;;;;;;5014116;28;20185;-83
2021/03/04 02:24:28;;;;;;;0.60;0.60;;;8.30;99.90;;;;;;5009642;28;20185;-83
2021/03/04 02:27:07;;;;;;;0.60;0.60;;;8.30;99.90;;;;;;5014507;28;20191;-84
2021/03/04 02:29:44;;;;;;;0.53;0.53;;;8.40;99.90;;;;;;5001884;28;20278;-84
2021/03/04 02:32:11;;;;;;;0.50;0.50;;;8.50;99.90;;;;;;5013786;28;20266;-84
2021/03/04 02:34:46;;;;;;;0.60;0.60;;;8.50;99.90;;;;;;5014166;28;20228;-83
2021/03/04 02:37:18;;;;;;;0.20;0.20;;;8.50;99.90;;;;;;5010724;28;20666;-83
2021/03/04 02:39:45;;;;;;;0.33;0.30;;;8.50;99.90;;;;;;5012986;28;20804;-84
2021/03/04 02:42:16;;;;;;;0.43;0.43;;;8.50;99.90;;;;;;5010207;28;20195;-83
2021/03/04 02:44:43;;;;;;;0.40;0.40;;;8.40;99.90;;;;;;5009579;28;20206;-84
2021/03/04 02:47:10;;;;;;;1.50;0.70;;;8.10;99.90;;;;;;5013909;28;20194;-84
2021/03/04 02:49:36;;;;;;;2.33;1.57;;;8.20;99.90;;;;;;5012094;28;20207;-83
2021/03/04 02:52:05;;;;;;;1.63;1.37;;;7.90;99.90;;;;;;5008033;28;20282;-85
2021/03/04 02:54:31;;;;;;;1.80;0.80;;;7.60;99.90;;;;;;5012899;28;20250;-84
2021/03/04 02:56:58;;;;;;;1.13;0.87;;;7.40;99.90;;;;;;5014065;28;20204;-84
2021/03/04 02:59:25;;;;;;;0.60;0.60;;;7.40;99.90;;;;;;5017096;28;20203;-84
2021/03/04 03:01:51;;;;;;;0.40;0.37;;;7.50;99.90;;;;;;5012872;28;20175;-83
2021/03/04 03:04:18;;;;;;;0.90;0.90;;;7.50;99.90;;;;;;5013528;28;20214;-84
2021/03/04 03:06:46;;;;;;;0.53;0.40;;;7.60;99.90;;;;;;5013683;28;20172;-84
2021/03/04 03:09:12;;;;;;;0.23;0.23;;;7.60;99.90;;;;;;5012407;28;20254;-85
2021/03/04 03:11:38;;;;;;;0.23;0.23;;;7.60;99.90;;;;;;5013215;28;20193;-84
2021/03/04 03:14:04;;;;;;;0.53;0.53;;;7.50;99.90;;;;;;5012820;28;20185;-84
2021/03/04 03:16:30;;;;;;;1.13;1.03;;;7.50;99.90;;;;;;5012000;28;20285;-84
2021/03/04 03:18:58;;;;;;;2.20;0.97;;;7.50;99.90;;;;;;5013246;28;20259;-83
2021/03/04 03:21:24;;;;;;;0.37;0.37;;;7.40;99.90;;;;;;5012579;28;20194;-84
2021/03/04 03:23:49;;;;;;;5.10;1.93;;;7.30;99.90;;;;;;5012038;28;20653;-84
2021/03/04 03:26:15;;;;;;;0.63;0.63;;;7.20;99.90;;;;;;5011886;28;20207;-84
2021/03/04 03:28:41;;;;;;;0.93;0.80;;;7.00;99.90;;;;;;5011306;28;20298;-84
2021/03/04 03:31:08;;;;;;;0.40;0.40;;;6.90;99.90;;;;;;5010566;28;20187;-83
2021/03/04 03:33:34;;;;;;;1.13;1.03;;;6.90;99.90;;;;;;5011105;28;20185;-84
2021/03/04 03:36:00;;;;;;;0.97;0.40;;;7.00;99.90;;;;;;5011694;28;20188;-84
2021/03/04 03:38:27;;;;;;;4.07;2.37;;;7.10;99.90;;;;;;5012127;28;20202;-84
2021/03/04 03:40:55;;;;;;;1.70;0.70;;;7.10;99.90;;;;;;5007117;28;20283;-84
2021/03/04 03:43:22;;;;;;;0.20;0.20;;;7.20;99.90;;;;;;5005625;28;20451;-84
2021/03/04 03:45:51;;;;;;;1.10;0.33;;;7.20;99.90;;;;;;5012643;28;20245;-84
2021/03/04 03:48:20;;;;;;;0.50;0.27;;;7.20;99.90;;;;;;5011339;28;20266;-83
2021/03/04 03:50:53;;;;;;;7.80;1.07;;;7.30;99.90;;;;;;5010640;28;20185;-84
2021/03/04 03:53:20;;;;;;;0.33;0.33;;;7.30;99.90;;;;;;5011216;28;20220;-83
2021/03/04 03:55:47;;;;;;;0.83;0.83;;;7.30;99.90;;;;;;5012586;28;20193;-83
2021/03/04 03:58:15;;;;;;;2.00;0.50;;;7.30;99.90;;;;;;5010873;28;20207;-83
2021/03/04 04:00:41;;;;;;;0.93;0.40;;;7.30;99.90;;;;;;5017082;28;20195;-84
2021/03/04 04:03:09;;;;;;;1.50;1.40;;;7.40;99.90;;;;;;5010966;28;20578;-83
2021/03/04 04:05:35;;;;;;;5.50;0.50;;;7.30;99.90;;;;;;5012274;28;20215;-84
2021/03/04 04:08:01;;;;;;;0.40;0.40;;;7.40;99.90;;;;;;5010649;28;20571;-84
2021/03/04 04:10:33;;;;;;;0.60;0.60;;;7.50;99.90;;;;;;5010568;28;20188;-84
2021/03/04 04:12:59;;;;;;;0.53;0.53;;;7.60;99.90;;;;;;5011980;28;20195;-84
2021/03/04 04:15:26;;;;;;;0.50;0.43;;;7.60;99.90;;;;;;5010905;28;20656;-84
2021/03/04 04:17:57;;;;;;;1.40;0.43;;;7.70;99.90;;;;;;5010789;28;20187;-83
2021/03/04 04:20:23;;;;;;;2.00;0.23;;;7.60;99.90;;;;;;5010363;28;20191;-84
2021/03/04 04:22:50;;;;;;;3.50;2.10;;;7.60;99.90;;;;;;5010802;28;20248;-84
2021/03/04 04:25:18;;;;;;;0.77;0.60;;;7.60;99.90;;;;;;5011244;28;20200;-83
2021/03/04 04:27:43;;;;;;;3.40;0.23;;;7.70;99.90;;;;;;5010869;28;20247;-86
2021/03/04 04:30:10;;;;;;;1.37;0.80;;;7.70;99.90;;;;;;5010470;28;20195;-84
2021/03/04 04:32:36;;;;;;;0.87;0.60;;;7.60;99.90;;;;;;5014048;28;20210;-84
2021/03/04 04:35:02;;;;;;;1.07;1.07;;;7.70;99.90;;;;;;5011749;28;20186;-84
2021/03/04 04:37:28;;;;;;;0.20;0.20;;;7.70;99.90;;;;;;5011622;28;20234;-84
2021/03/04 04:39:53;;;;;;;1.03;0.97;;;7.70;99.90;;;;;;5010305;28;20203;-83
2021/03/04 04:42:19;;;;;;;1.30;1.10;;;7.80;99.90;;;;;;5010735;28;20192;-84
2021/03/04 04:44:45;;;;;;;0.43;0.43;;;7.80;99.90;;;;;;5011278;28;20246;-83
2021/03/04 04:47:10;;;;;;;2.27;1.40;;;7.80;99.90;;;;;;5012330;28;20207;-84
2021/03/04 04:49:36;;;;;;;0.60;0.60;;;7.50;99.90;;;;;;5010394;28;20208;-83
2021/03/04 04:52:02;;;;;;;0.63;0.63;;;7.30;99.90;;;;;;5012376;28;20223;-84
2021/03/04 04:54:27;;;;;;;0.47;0.47;;;7.00;99.90;;;;;;5012001;28;20257;-84
2021/03/04 04:56:53;;;;;;;1.90;1.23;;;6.80;99.90;;;;;;5010841;28;20188;-83
2021/03/04 04:59:18;;;;;;;2.00;0.73;;;6.70;99.90;;;;;;5016752;28;20678;-84
2021/03/04 05:01:44;;;;;;;0.77;0.43;;;6.80;99.90;;;;;;5011556;28;20183;-83
2021/03/04 05:04:09;;;;;;;0.33;0.33;;;6.90;99.90;;;;;;5010321;28;20645;-84
2021/03/04 05:06:35;;;;;;;1.27;0.73;;;6.80;99.90;;;;;;5011923;28;20810;-84
2021/03/04 05:09:01;;;;;;;1.37;1.27;;;6.80;99.90;;;;;;5010863;28;20212;-83
2021/03/04 05:11:26;;;;;;;0.93;0.93;;;6.70;99.90;;;;;;5010014;28;20253;-83
2021/03/04 05:13:52;;;;;;;0.20;0.20;;;6.80;99.90;;;;;;5012297;28;20187;-84
2021/03/04 05:16:17;;;;;;;0.50;0.50;;;7.00;99.90;;;;;;5011458;28;20194;-84
2021/03/04 05:18:43;;;;;;;0.93;0.43;;;7.10;99.90;;;;;;5010581;28;20648;-82
2021/03/04 05:21:08;;;;;;;0.40;0.40;;;7.30;99.90;;;;;;5010873;28;20195;-84
2021/03/04 05:23:34;;;;;;;0.20;0.20;;;7.40;99.90;;;;;;5011835;28;20191;-83
2021/03/04 05:26:00;;;;;;;0.63;0.63;;;7.40;99.90;;;;;;5011796;28;20218;-84
2021/03/04 05:28:26;;;;;;;0.37;0.27;;;7.40;99.90;;;;;;5010417;28;20570;-83
2021/03/04 05:30:52;;;;;;;1.00;0.97;;;7.50;99.90;;;;;;5009519;28;20179;-83
2021/03/04 05:33:19;;;;;;;0.30;0.30;;;7.70;99.90;;;;;;5010094;28;20275;-83
2021/03/04 05:35:45;;;;;;;0.43;0.43;;;7.70;99.90;;;;;;5010915;28;20564;-84
2021/03/04 05:38:10;;;;;;;0.93;0.67;;;7.60;99.90;;;;;;5010853;28;20189;-84
2021/03/04 05:40:36;;;;;;;0.83;0.83;;;7.60;99.90;;;;;;5009299;28;20192;-83
2021/03/04 05:43:02;;;;;;;0.73;0.73;;;7.70;99.90;;;;;;5010223;28;20238;-84
2021/03/04 05:45:29;;;;;;;1.17;0.63;;;7.70;99.90;;;;;;5008864;28;20223;-83
2021/03/04 05:47:56;;;;;;;1.67;0.77;;;7.70;99.90;;;;;;5009969;28;20194;-83
2021/03/04 05:50:26;;;;;;;0.80;0.80;;;7.70;99.90;;;;;;5010708;28;20184;-83
2021/03/04 05:52:59;;;;;;;1.20;0.87;;;7.70;99.90;;;;;;5011842;28;20206;-84
2021/03/04 05:55:25;;;;;;;1.90;0.70;;;7.70;99.90;;;;;;5014081;28;20196;-84
2021/03/04 05:57:51;;;;;;;0.67;0.47;;;7.70;99.90;;;;;;5014004;28;20236;-84
2021/03/04 06:00:19;;;;;;;2.57;1.67;;;7.70;99.90;;;;;;5017984;28;20220;-84
2021/03/04 06:02:46;;;;;;;3.17;1.50;;;7.50;99.90;;;;;;5013962;28;20193;-84
2021/03/04 06:05:13;;;;;;;1.50;0.83;;;7.30;99.90;;;;;;4998878;28;20215;-84
2021/03/04 06:07:43;;;;;;;0.53;0.40;;;7.20;99.90;;;;;;5009149;28;20282;-84
2021/03/04 06:10:09;;;;;;;0.93;0.80;;;7.20;99.90;;;;;;5013327;28;20237;-83
2021/03/04 06:12:34;;;;;;;0.83;0.60;;;7.40;99.90;;;;;;5014808;28;20184;-84
2021/03/04 06:15:00;;;;;;;0.20;0.20;;;7.50;99.90;;;;;;5024226;28;20196;-84
2021/03/04 06:17:26;;;;;;;0.60;0.60;;;7.50;99.90;;;;;;5008889;28;20184;-83
2021/03/04 06:19:57;;;;;;;0.40;0.40;;;7.50;99.90;;;;;;5013014;28;20250;-84
2021/03/04 06:22:27;;;;;;;1.03;0.87;;;7.50;99.90;;;;;;5013711;28;20179;-85
2021/03/04 06:24:54;;;;;;;1.50;1.00;;;7.40;99.90;;;;;;5013329;28;20239;-83
2021/03/04 06:27:31;;;;;;;0.20;0.20;;;7.50;99.90;;;;;;5012639;28;20227;-83
2021/03/04 06:30:02;;;;;;;1.10;0.77;;;7.40;99.90;;;;;;5012545;28;20203;-83
2021/03/04 06:32:28;;;;;;;0.43;0.43;;;7.50;99.90;;;;;;5012618;28;20181;-83
2021/03/04 06:35:14;;;;;;;0.37;0.37;;;7.40;99.90;;;;;;5014429;28;20191;-81
2021/03/04 06:37:42;;;;;;;0.50;0.50;;;7.30;99.90;;;;;;5014683;28;20200;-83
2021/03/04 06:40:21;;;;;;;0.13;0.13;;;7.20;99.90;;;;;;5013556;28;20202;-83
2021/03/04 06:42:48;;;;;;;0.93;0.50;;;7.20;99.90;;;;;;5007597;28;20189;-83
2021/03/04 06:45:36;;;;;;;4.37;0.50;;;7.30;99.90;;;;;;5025180;28;20231;-83
2021/03/04 06:48:10;;;;;;;0.13;0.13;;;7.30;99.90;;;;;;5011233;28;20586;-82
2021/03/04 06:50:39;;;;;;;0.43;0.43;;;7.30;99.90;;;;;;5011208;28;20180;-83
2021/03/04 06:53:11;;;;;;;0.57;0.40;;;7.20;99.90;;;;;;5011677;28;20180;-83
2021/03/04 06:55:50;;;;;;;0.93;0.80;;;6.90;99.90;;;;;;5007904;28;20241;-84
2021/03/04 06:58:26;;;;;;;0.83;0.83;;;6.70;99.90;;;;;;5008174;28;20218;-85
2021/03/04 07:01:17;;;;;;;0.47;0.47;;;6.70;99.90;;;;;;5019184;28;20190;-84
2021/03/04 07:03:49;;;;;;;0.30;0.27;;;6.80;99.90;;;;;;5012389;28;20184;-84
2021/03/04 07:06:17;;;;;;;0.53;0.30;;;6.90;99.90;;;;;;5013815;28;20273;-84
2021/03/04 07:08:48;;;;;;;4.83;0.40;;;7.00;99.90;;;;;;5015669;28;20195;-84
2021/03/04 07:11:15;;;;;;;0.30;0.30;;;7.00;99.90;;;;;;5013567;28;20730;-85
2021/03/04 07:13:42;;;;;;;0.40;0.40;;;7.30;99.90;;;;;;5020303;28;20254;-85
2021/03/04 07:16:22;;;;;;;0.50;0.50;;;7.40;99.90;;;;;;5025583;28;20187;-84
2021/03/04 07:19:02;;;;;;;1.20;0.50;;;7.60;99.90;;;;;;5024288;28;20596;-83
2021/03/04 07:21:33;;;;;;;0.67;0.57;;;7.60;99.90;;;;;;5009000;28;20187;-84
2021/03/04 07:24:03;;;;;;;0.10;0.10;;;7.80;99.90;;;;;;5025461;28;20184;-83
2021/03/04 07:26:29;;;;;;;0.90;0.87;;;8.00;99.90;;;;;;5022429;28;20517;-84
2021/03/04 07:28:56;;;;;;;0.47;0.47;;;8.30;99.90;;;;;;5017522;28;20207;-84
2021/03/04 07:31:22;;;;;;;0.40;0.40;;;8.50;99.90;;;;;;5022678;28;20261;-83
2021/03/04 07:33:49;;;;;;;0.33;0.33;;;8.70;99.90;;;;;;5016901;28;20237;-84
2021/03/04 07:36:21;;;;;;;1.37;0.40;;;8.80;99.90;;;;;;5025912;28;20220;-84
2021/03/04 07:39:00;;;;;;;0.17;0.17;;;9.00;99.90;;;;;;5018867;28;20210;-84
2021/03/04 07:41:36;;;;;;;0.43;0.43;;;9.20;99.90;;;;;;5013333;28;20190;-85
2021/03/04 07:44:02;;;;;;;2.67;0.47;;;9.40;99.90;;;;;;5003083;28;20190;-83
2021/03/04 07:46:33;;;;;;;0.40;0.37;;;9.70;99.90;;;;;;5006294;28;20297;-83
2021/03/04 07:49:00;;;;;;;0.27;0.27;;;10.00;99.90;;;;;;5010989;28;20207;-83
2021/03/04 07:51:26;;;;;;;1.10;0.30;;;10.30;99.90;;;;;;5013601;28;20730;-84
2021/03/04 07:53:53;;;;;;;0.90;0.90;;;10.50;99.90;;;;;;5009655;28;20246;-82
2021/03/04 07:56:29;;;;;;;0.90;0.87;;;10.60;99.90;;;;;;5012657;28;20738;-84
2021/03/04 07:59:06;;;;;;;5.27;3.43;;;10.50;99.90;;;;;;5012485;28;20240;-83
2021/03/04 08:01:32;;;;;;;1.57;0.70;;;10.60;99.90;;;;;;5011680;28;20200;-83
2021/03/04 08:03:57;;;;;;;1.90;1.07;;;10.70;99.90;;;;;;5009824;28;20194;-83
2021/03/04 08:06:23;;;;;;;1.17;0.80;;;10.80;99.90;;;;;;5013091;28;20679;-83
2021/03/04 08:08:49;;;;;;;1.43;0.33;;;10.80;99.90;;;;;;5011974;28;20213;-83
2021/03/04 08:11:29;;;;;;;0.60;0.60;;;10.80;99.90;;;;;;5010608;28;20179;-85
2021/03/04 08:13:55;;;;;;;0.60;0.57;;;10.80;99.90;;;;;;5010319;28;20190;-83
2021/03/04 08:16:22;;;;;;;0.40;0.40;;;10.70;99.90;;;;;;5012207;28;20194;-83
2021/03/04 08:18:58;;;;;;;0.40;0.40;;;10.80;99.90;;;;;;5011248;28;20600;-83
2021/03/04 08:21:24;;;;;;;1.20;1.00;;;10.80;99.90;;;;;;5010391;28;20677;-84
2021/03/04 08:23:51;;;;;;;1.23;1.13;;;10.90;99.90;;;;;;5012197;28;20542;-84
2021/03/04 08:26:23;;;;;;;1.67;1.57;;;11.10;99.90;;;;;;5010323;28;20245;-83
2021/03/04 08:28:49;;;;;;;0.70;0.70;;;11.00;99.90;;;;;;5011386;28;20207;-83
2021/03/04 08:31:15;;;;;;;1.00;0.80;;;11.40;99.90;;;;;;5010329;28;20196;-83
2021/03/04 08:33:41;;;;;;;0.50;0.50;;;11.70;99.90;;;;;;5010928;28;20224;-84
2021/03/04 08:36:07;;;;;;;2.03;1.07;;;11.70;99.90;;;;;;5012681;28;20183;-83
2021/03/04 08:38:40;;;;;;;2.17;0.90;;;11.60;99.90;;;;;;5011786;28;20210;-83
2021/03/04 08:41:06;;;;;;;1.67;1.47;;;11.60;99.90;;;;;;5017668;28;20220;-83
2021/03/04 08:43:32;;;;;;;2.07;1.07;;;11.60;99.90;;;;;;5007945;28;20226;-83
2021/03/04 08:46:07;;;;;;;1.67;1.30;;;11.80;99.90;;;;;;5010331;28;20313;-83
2021/03/04 08:48:32;;;;;;;0.33;0.30;;;12.00;99.90;;;;;;5010565;28;20210;-83
2021/03/04 08:51:03;;;;;;;1.30;0.90;;;12.10;99.90;;;;;;5009056;28;20201;-83
2021/03/04 08:53:31;;;;;;;0.93;0.93;;;12.00;99.90;;;;;;5012207;28;20183;-82
2021/03/04 08:56:00;;;;;;;0.70;0.67;;;12.00;99.90;;;;;;5017806;28;20568;-84
2021/03/04 08:58:27;;;;;;;1.23;0.83;;;12.10;99.90;;;;;;5009996;28;20214;-83
2021/03/04 09:01:01;;;;;;;0.73;0.70;;;12.20;99.90;;;;;;5015690;28;20193;-83
2021/03/04 09:03:28;;;;;;;1.87;1.10;;;12.40;99.90;;;;;;5010784;28;20246;-84
2021/03/04 09:06:11;;;;;;;1.03;1.00;;;12.60;99.90;;;;;;5010026;28;20222;-83
2021/03/04 09:08:50;;;;;;;1.53;1.00;;;12.60;99.90;;;;;;5010755;28;20211;-83
2021/03/04 09:11:28;;;;;;;0.60;0.60;;;12.70;99.90;;;;;;5007980;28;20190;-83
2021/03/04 09:14:01;;;;;;;0.77;0.77;;;13.00;99.90;;;;;;5011342;28;20186;-82
2021/03/04 09:16:26;;;;;;;1.43;0.60;;;13.30;99.90;;;;;;5010105;28;20194;-83
2021/03/04 09:18:52;;;;;;;0.50;0.50;;;13.40;99.90;;;;;;5010546;28;20221;-83
2021/03/04 09:21:18;;;;;;;1.80;0.87;;;13.50;99.90;;;;;;5010883;28;20659;-84
2021/03/04 09:23:44;;;;;;;1.37;0.70;;;13.50;99.90;;;;;;5010254;28;20191;-83
2021/03/04 09:26:10;;;;;;;0.80;0.80;;;13.40;99.90;;;;;;5010547;28;20207;-83
2021/03/04 09:28:41;;;;;;;0.50;0.50;;;13.20;99.90;;;;;;5014724;28;20288;-84
2021/03/04 09:31:12;;;;;;;5.30;1.43;;;13.00;99.90;;;;;;5014616;28;20214;-84
2021/03/04 09:33:37;;;;;;;1.93;0.47;;;12.80;99.90;;;;;;5014540;28;20236;-83
2021/03/04 09:36:05;;;;;;;0.77;0.53;;;12.60;99.90;;;;;;5015998;28;20589;-83
2021/03/04 09:38:33;;;;;;;1.90;1.33;;;12.40;99.90;;;;;;5015245;28;20264;-82
2021/03/04 09:41:14;;;;;;;1.13;0.83;;;12.40;99.90;;;;;;5013973;28;20213;-83
2021/03/04 09:43:45;;;;;;;1.27;1.10;;;12.60;99.90;;;;;;5015550;28;20199;-83
2021/03/04 09:46:12;;;;;;;1.23;1.13;;;12.90;99.90;;;;;;5014852;28;20260;-83
2021/03/04 09:48:39;;;;;;;0.50;0.50;;;13.20;99.90;;;;;;5015957;28;20214;-83
2021/03/04 09:51:05;;;;;;;0.70;0.57;;;13.50;99.90;;;;;;5013017;28;20186;-84
2021/03/04 09:53:41;;;;;;;0.53;0.53;;;13.90;99.90;;;;;;5011957;28;20202;-83
2021/03/04 09:56:07;;;;;;;0.80;0.80;;;13.90;99.90;;;;;;5013363;28;20186;-84
2021/03/04 09:58:40;;;;;;;3.23;1.33;;;13.90;99.90;;;;;;5013278;28;20714;-84
2021/03/04 10:01:05;;;;;;;1.17;1.10;;;14.10;99.90;;;;;;5017908;28;20187;-83
2021/03/04 10:03:41;;;;;;;0.40;0.40;;;14.10;99.90;;;;;;5005345;28;20202;-84
2021/03/04 10:06:20;;;;;;;0.80;0.80;;;14.40;99.90;;;;;;5004873;28;20202;-84
2021/03/04 10:08:52;;;;;;;1.80;1.37;;;14.60;99.90;;;;;;5011771;28;20680;-83
2021/03/04 10:11:23;;;;;;;1.10;1.10;;;14.70;99.90;;;;;;5008503;28;20617;-83
2021/03/04 10:13:49;;;;;;;3.83;1.23;;;14.70;99.90;;;;;;5013961;28;20188;-83
2021/03/04 10:16:14;;;;;;;5.03;2.53;;;14.60;99.90;;;;;;5015025;28;20186;-82
2021/03/04 10:18:48;;;;;;;1.40;0.93;;;14.20;99.90;;;;;;5009370;28;20276;-83
2021/03/04 10:21:16;;;;;;;0.70;0.70;;;14.30;99.90;;;;;;5007880;28;20197;-84
2021/03/04 10:23:44;;;;;;;0.97;0.73;;;14.20;99.90;;;;;;5007384;28;20284;-83
2021/03/04 10:26:10;;;;;;;2.00;1.47;;;14.40;99.90;;;;;;5004054;28;20204;-83
2021/03/04 10:28:36;;;;;;;1.53;1.17;;;14.40;99.90;;;;;;4998531;28;20223;-83
2021/03/04 10:31:01;;;;;;;0.60;0.47;;;14.60;99.90;;;;;;5011806;28;20222;-83
2021/03/04 10:33:28;;;;;;;7.47;2.00;;;14.80;99.90;;;;;;5000105;28;20181;-82
2021/03/04 10:35:53;;;;;;;0.80;0.80;;;14.60;99.90;;;;;;5012282;28;20191;-82
2021/03/04 10:38:19;;;;;;;1.73;1.00;;;14.80;99.90;;;;;;5011151;28;20206;-83
2021/03/04 10:40:45;;;;;;;2.33;1.37;;;14.80;99.90;;;;;;5010763;28;20201;-83
2021/03/04 10:43:10;;;;;;;0.67;0.50;;;14.80;99.90;;;;;;5011358;28;20197;-83
2021/03/04 10:45:36;;;;;;;1.00;0.97;;;15.10;99.90;;;;;;5010622;28;20211;-83
2021/03/04 10:48:01;;;;;;;0.80;0.80;;;15.20;99.90;;;;;;5010238;28;20199;-83
2021/03/04 10:50:27;;;;;;;0.53;0.53;;;15.30;99.90;;;;;;5010310;28;20194;-83
2021/03/04 10:52:53;;;;;;;2.43;1.03;;;15.60;99.90;;;;;;5013301;28;20186;-83
2021/03/04 10:55:20;;;;;;;1.00;0.90;;;15.80;99.90;;;;;;5011096;28;20200;-83
2021/03/04 10:57:45;;;;;;;1.67;0.90;;;16.20;99.90;;;;;;5012453;28;20196;-83
2021/03/04 11:00:12;;;;;;;2.23;1.70;;;16.20;99.90;;;;;;5011650;28;20225;-83
2021/03/04 11:02:38;;;;;;;1.83;0.73;;;16.20;99.90;;;;;;5010998;28;20576;-82
2021/03/04 11:05:07;;;;;;;1.27;1.17;;;16.40;99.90;;;;;;5010647;28;20577;-83
2021/03/04 11:07:33;;;;;;;1.67;1.37;;;16.60;99.90;;;;;;5008315;28;20190;-83
2021/03/04 11:09:58;;;;;;;1.70;1.13;;;16.80;99.90;;;;;;5011835;28;20214;-83
2021/03/04 11:12:24;;;;;;;0.67;0.67;;;17.10;99.90;;;;;;5013121;28;20255;-83
2021/03/04 11:14:49;;;;;;;1.17;1.17;;;17.20;99.90;;;;;;5002715;28;20201;-83
2021/03/04 11:17:15;;;;;;;0.37;0.30;;;17.00;99.90;;;;;;5004668;28;20660;-83
2021/03/04 11:19:42;;;;;;;1.50;1.13;;;16.90;99.90;;;;;;5007673;28;20252;-84
2021/03/04 11:22:09;;;;;;;1.30;0.87;;;16.80;99.90;;;;;;5011059;28;20211;-83
2021/03/04 11:24:35;;;;;;;1.33;0.67;;;16.80;99.90;;;;;;5011727;28;20202;-83
2021/03/04 11:27:00;;;;;;;3.00;1.03;;;16.70;99.90;;;;;;5013542;28;20191;-83
2021/03/04 11:29:26;;;;;;;1.30;0.70;;;16.70;99.90;;;;;;5011681;28;20347;-83
2021/03/04 11:31:51;;;;;;;0.77;0.77;;;16.80;99.90;;;;;;5013663;28;20674;-82
2021/03/04 11:34:17;;;;;;;0.70;0.60;;;17.00;99.90;;;;;;5004207;28;20202;-82
2021/03/04 11:36:43;;;;;;;3.70;1.13;;;16.80;99.90;;;;;;5015292;28;20190;-83
2021/03/04 11:39:09;;;;;;;1.13;0.83;;;17.00;99.90;;;;;;5019832;28;20217;-82
2021/03/04 11:41:34;;;;;;;3.00;2.80;;;16.50;99.90;;;;;;5023480;28;20186;-82
2021/03/04 11:44:00;;;;;;;1.30;0.70;;;16.40;99.90;;;;;;5020500;28;20197;-82
2021/03/04 11:46:26;;;;;;;1.07;1.07;;;16.90;99.90;;;;;;5020735;28;20207;-82
2021/03/04 11:48:52;;;;;;;2.40;1.97;;;17.20;99.90;;;;;;5022165;28;20217;-83
2021/03/04 11:51:19;;;;;;;5.87;3.40;;;17.20;99.90;;;;;;5021404;28;20190;-82
2021/03/04 11:53:45;;;;;;;3.50;2.17;;;17.00;99.90;;;;;;5018997;28;20201;-82
2021/03/04 11:56:10;;;;;;;9.23;2.70;;;16.80;99.90;;;;;;5019166;28;20272;-82
2021/03/04 11:58:37;;;;;;;2.73;2.00;;;16.60;99.90;;;;;;5018495;28;20839;-82
2021/03/04 12:01:03;;;;;;;2.17;1.57;;;16.50;99.90;;;;;;5022365;28;20268;-82
2021/03/04 12:03:29;;;;;;;0.60;0.60;;;16.30;99.90;;;;;;5020447;28;20280;-82
2021/03/04 12:05:55;;;;;;;1.70;1.27;;;16.30;99.90;;;;;;5021623;28;20582;-82
2021/03/04 12:08:22;;;;;;;0.93;0.87;;;16.30;99.90;;;;;;5010155;28;20224;-82
2021/03/04 12:10:47;;;;;;;1.90;1.47;;;16.30;99.90;;;;;;5021391;28;20208;-83
2021/03/04 12:13:13;;;;;;;1.43;0.97;;;16.20;99.90;;;;;;5020208;28;20641;-84
2021/03/04 12:15:40;;;;;;;6.57;1.87;;;16.10;99.90;;;;;;5010086;28;20200;-82
2021/03/04 12:18:06;;;;;;;0.83;0.83;;;15.90;99.90;;;;;;5010747;28;20196;-83
2021/03/04 12:20:32;;;;;;;4.37;1.30;;;15.80;99.90;;;;;;5014958;28;20542;-84
2021/03/04 12:22:58;;;;;;;1.47;0.73;;;15.80;99.90;;;;;;5009513;28;20182;-83
2021/03/04 12:25:24;;;;;;;2.67;1.40;;;15.90;99.90;;;;;;5009925;28;20205;-84
2021/03/04 12:27:50;;;;;;;0.87;0.87;;;15.90;99.90;;;;;;5018349;28;20264;-84
2021/03/04 12:30:17;;;;;;;2.80;1.83;;;16.20;99.90;;;;;;5018762;28;20262;-84
2021/03/04 12:32:44;;;;;;;1.63;1.47;;;16.60;99.90;;;;;;5016305;28;20572;-83
2021/03/04 12:35:10;;;;;;;0.80;0.80;;;16.50;99.90;;;;;;5017024;28;20203;-85
2021/03/04 12:37:37;;;;;;;0.87;0.83;;;16.00;99.90;;;;;;5006289;28;20267;-84
2021/03/04 12:40:04;;;;;;;1.07;0.83;;;15.80;99.90;;;;;;5009948;28;20204;-83
2021/03/04 12:42:30;;;;;;;1.77;1.47;;;15.60;99.90;;;;;;5009559;28;20298;-84
2021/03/04 12:44:55;;;;;;;1.10;1.07;;;15.10;99.90;;;;;;5016427;28;20221;-84
2021/03/04 12:47:21;;;;;;;1.40;0.77;;;15.20;99.90;;;;;;5014292;28;20620;-83
2021/03/04 12:49:46;;;;;;;1.53;0.97;;;15.20;99.90;;;;;;5015174;28;20307;-83
2021/03/04 12:52:12;;;;;;;1.13;0.40;;;15.30;99.90;;;;;;5004406;28;20181;-84
2021/03/04 12:54:38;;;;;;;2.43;1.73;;;15.20;99.90;;;;;;5013273;28;20748;-84
2021/03/04 12:57:04;;;;;;;1.80;1.20;;;15.10;99.90;;;;;;5011981;28;20187;-83